createdAt,value
2019-06-07T00:01:51.343Z,14.30
2019-06-07T00:04:21.347Z,14.30
2019-06-07T00:06:46.979Z,14.20
2019-06-07T00:09:15.320Z,14.30
2019-06-07T00:11:42.280Z,14.10
2019-06-07T00:14:11.163Z,14.10
2019-06-07T00:16:37.705Z,14.00
2019-06-07T00:19:04.905Z,14.00
2019-06-07T00:22:12.873Z,13.90
2019-06-07T00:24:00.656Z,13.80
2019-06-07T00:26:27.687Z,13.60
2019-06-07T00:28:54.467Z,13.50
2019-06-07T00:31:24.034Z,13.40
2019-06-07T00:33:50.421Z,13.20
2019-06-07T00:36:18.256Z,13.10
2019-06-07T00:38:46.251Z,12.90
2019-06-07T00:41:15.003Z,12.90
2019-06-07T00:43:42.455Z,12.80
2019-06-07T00:46:12.849Z,12.60
2019-06-07T00:48:38.075Z,12.80
2019-06-07T00:51:04.796Z,12.80
2019-06-07T00:53:32.669Z,12.70
2019-06-07T00:55:59.895Z,12.70
2019-06-07T00:58:29.219Z,12.50
2019-06-07T01:00:55.509Z,12.50
2019-06-07T01:03:25.551Z,12.50
2019-06-07T01:05:51.104Z,12.30
2019-06-07T01:08:20.004Z,12.20
2019-06-07T01:10:53.496Z,12.10
2019-06-07T01:13:17.189Z,12.00
2019-06-07T01:15:44.706Z,11.90
2019-06-07T01:18:35.994Z,11.90
2019-06-07T01:20:40.564Z,11.80
2019-06-07T01:23:52.056Z,11.80
2019-06-07T01:25:36.357Z,11.80
2019-06-07T01:28:03.886Z,11.70
2019-06-07T01:30:31.700Z,11.70
2019-06-07T01:32:58.942Z,11.60
2019-06-07T01:35:25.741Z,11.60
2019-06-07T01:37:52.531Z,11.60
2019-06-07T01:40:20.828Z,11.70
2019-06-07T01:42:48.436Z,11.80
2019-06-07T01:45:18.096Z,11.80
2019-06-07T01:47:45.003Z,11.90
2019-06-07T01:50:12.479Z,12.00
2019-06-07T01:52:39.387Z,11.90
2019-06-07T01:55:06.687Z,12.00
2019-06-07T01:57:45.440Z,12.10
2019-06-07T02:00:05.094Z,12.00
2019-06-07T02:02:32.129Z,11.80
2019-06-07T02:04:58.909Z,11.70
2019-06-07T02:07:28.042Z,11.70
2019-06-07T02:09:54.211Z,11.50
2019-06-07T02:12:28.104Z,11.30
2019-06-07T02:14:49.531Z,11.10
2019-06-07T02:17:16.210Z,11.00
2019-06-07T02:19:42.928Z,11.00
2019-06-07T02:22:09.684Z,11.00
2019-06-07T02:24:36.746Z,11.20
2019-06-07T02:27:03.661Z,11.30
2019-06-07T02:29:33.330Z,11.50
2019-06-07T02:31:59.341Z,11.70
2019-06-07T02:34:28.103Z,11.80
2019-06-07T02:36:54.632Z,12.00
2019-06-07T02:39:25.244Z,12.10
2019-06-07T02:41:50.368Z,12.20
2019-06-07T02:44:17.083Z,12.20
2019-06-07T02:46:48.797Z,12.30
2019-06-07T02:49:12.399Z,12.10
2019-06-07T02:51:41.503Z,12.20
2019-06-07T02:54:07.767Z,12.10
2019-06-07T02:56:43.927Z,12.00
2019-06-07T02:59:03.628Z,12.00
2019-06-07T03:01:35.973Z,12.00
2019-06-07T03:03:59.780Z,11.90
2019-06-07T03:06:31.792Z,12.00
2019-06-07T03:08:59.521Z,12.10
2019-06-07T03:11:31.136Z,12.20
2019-06-07T03:14:00.063Z,12.30
2019-06-07T03:16:37.285Z,12.50
2019-06-07T03:19:11.324Z,12.20
2019-06-07T03:21:41.738Z,12.20
2019-06-07T03:24:08.994Z,12.00
2019-06-07T03:27:29.114Z,11.90
2019-06-07T03:29:05.020Z,11.60
2019-06-07T03:31:40.195Z,11.50
2019-06-07T03:34:00.319Z,11.40
2019-06-07T03:36:27.520Z,11.30
2019-06-07T03:38:54.407Z,11.30
2019-06-07T03:41:21.424Z,11.30
2019-06-07T03:43:48.161Z,11.30
2019-06-07T03:46:14.856Z,11.20
2019-06-07T03:48:41.700Z,11.20
2019-06-07T03:51:23.957Z,11.10
2019-06-07T03:53:40.727Z,11.40
2019-06-07T03:56:06.655Z,11.40
2019-06-07T03:58:41.293Z,11.30
2019-06-07T04:01:02.308Z,11.30
2019-06-07T04:03:39.488Z,11.50
2019-06-07T04:05:57.776Z,11.60
2019-06-07T04:08:24.755Z,11.70
2019-06-07T04:10:59.689Z,11.80
2019-06-07T04:13:20.762Z,11.90
2019-06-07T04:15:47.866Z,11.90
2019-06-07T04:18:14.700Z,12.00
2019-06-07T04:20:41.664Z,12.00
2019-06-07T04:23:27.394Z,12.00
2019-06-07T04:25:41.842Z,11.90
2019-06-07T04:28:06.040Z,12.00
2019-06-07T04:30:41.999Z,12.20
2019-06-07T04:33:09.502Z,12.50
2019-06-07T04:35:40.039Z,12.50
2019-06-07T04:38:07.198Z,12.40
2019-06-07T04:40:36.962Z,12.50
2019-06-07T04:43:04.564Z,12.50
2019-06-07T04:45:40.555Z,12.60
2019-06-07T04:48:03.128Z,12.60
2019-06-07T04:50:33.821Z,12.70
2019-06-07T04:52:59.245Z,13.30
2019-06-07T04:55:26.159Z,13.90
2019-06-07T04:57:52.871Z,15.70
2019-06-07T05:02:58.968Z,20.20
2019-06-07T05:05:25.874Z,20.10
2019-06-07T05:07:52.923Z,19.30
2019-06-07T05:10:19.887Z,20.70
2019-06-07T05:12:46.560Z,21.10
2019-06-07T05:15:13.462Z,21.80
2019-06-07T05:17:44.776Z,22.40
2019-06-07T05:20:09.429Z,23.40
2019-06-07T05:22:40.746Z,23.50
2019-06-07T05:25:05.172Z,22.50
2019-06-07T05:27:33.872Z,22.40
2019-06-07T05:30:13.716Z,24.90
2019-06-07T05:32:32.479Z,24.20
2019-06-07T05:34:58.257Z,24.10
2019-06-07T05:37:25.039Z,23.30
2019-06-07T05:39:51.822Z,23.00
2019-06-07T05:42:18.626Z,24.20
2019-06-07T05:44:46.001Z,24.90
2019-06-07T05:47:12.836Z,25.50
2019-06-07T05:49:43.889Z,25.30
2019-06-07T05:52:08.428Z,24.50
2019-06-07T05:54:36.482Z,25.10
2019-06-07T05:57:03.871Z,25.50
2019-06-07T05:59:30.685Z,26.40
2019-06-07T06:02:05.024Z,26.90
2019-06-07T06:04:26.608Z,26.40
2019-06-07T06:06:53.359Z,25.80
2019-06-07T06:09:20.363Z,25.10
2019-06-07T06:11:59.744Z,26.30
2019-06-07T06:14:15.990Z,26.90
2019-06-07T06:16:45.734Z,26.60
2019-06-07T06:19:11.279Z,28.30
2019-06-07T06:21:38.528Z,27.50
2019-06-07T06:24:05.740Z,27.80
2019-06-07T06:26:32.430Z,29.20
2019-06-07T06:28:59.271Z,30.80
2019-06-07T06:31:25.932Z,31.30
2019-06-07T06:33:52.907Z,32.00
2019-06-07T06:36:20.502Z,32.90
2019-06-07T06:38:49.846Z,32.60
2019-06-07T06:41:17.133Z,31.00
2019-06-07T06:43:46.729Z,29.70
2019-06-07T06:46:13.037Z,28.70
2019-06-07T06:48:40.967Z,30.60
2019-06-07T06:51:08.868Z,29.50
2019-06-07T06:53:35.542Z,30.80
2019-06-07T06:56:02.615Z,30.80
2019-06-07T06:58:29.695Z,29.20
2019-06-07T07:01:06.030Z,28.00
2019-06-07T07:04:03.689Z,27.20
2019-06-07T07:05:55.273Z,28.70
2019-06-07T07:08:22.451Z,29.70
2019-06-07T07:10:53.298Z,28.90
2019-06-07T07:13:18.078Z,29.30
2019-06-07T07:15:47.428Z,28.60
2019-06-07T07:18:14.249Z,30.40
2019-06-07T07:20:43.568Z,30.00
2019-06-07T07:23:10.072Z,28.00
2019-06-07T07:25:37.328Z,27.60
2019-06-07T07:28:04.347Z,27.50
2019-06-07T07:30:43.200Z,25.80
2019-06-07T07:33:10.692Z,28.40
2019-06-07T07:35:37.662Z,29.10
2019-06-07T07:38:04.575Z,27.20
2019-06-07T07:43:00.400Z,28.20
2019-06-07T07:45:27.125Z,27.90
2019-06-07T07:48:08.299Z,27.00
2019-06-07T07:50:23.134Z,24.00
2019-06-07T07:52:55.988Z,23.50
2019-06-07T07:55:18.532Z,24.60
2019-06-07T07:57:46.643Z,25.50
2019-06-07T08:00:49.320Z,26.70
2019-06-07T08:02:44.197Z,26.00
2019-06-07T08:05:23.432Z,24.70
2019-06-07T08:07:40.086Z,22.90
2019-06-07T08:10:07.843Z,24.30
2019-06-07T08:12:55.623Z,26.10
2019-06-07T08:15:04.576Z,27.50
2019-06-07T08:17:31.510Z,28.70
2019-06-07T08:20:02.585Z,29.50
2019-06-07T08:22:27.465Z,30.50
2019-06-07T08:24:55.971Z,29.80
2019-06-07T08:27:26.738Z,30.30
2019-06-07T08:30:13.894Z,29.60
2019-06-07T08:32:21.143Z,27.40
2019-06-07T08:34:49.917Z,26.00
2019-06-07T08:37:16.584Z,26.10
2019-06-07T08:39:43.603Z,28.00
2019-06-07T08:42:17.677Z,27.10
2019-06-07T08:44:39.050Z,26.80
2019-06-07T08:47:19.796Z,25.40
2019-06-07T08:49:34.655Z,22.80
2019-06-07T08:52:09.909Z,21.70
2019-06-07T08:54:30.397Z,20.40
2019-06-07T08:57:16.732Z,19.70
2019-06-07T08:59:26.273Z,19.50
2019-06-07T09:01:57.819Z,19.30
2019-06-07T09:04:22.113Z,19.10
2019-06-07T09:07:18.144Z,19.30
2019-06-07T09:09:18.616Z,20.30
2019-06-07T09:11:45.344Z,22.00
2019-06-07T09:14:12.160Z,21.50
2019-06-07T09:16:38.984Z,22.00
2019-06-07T09:19:10.664Z,21.40
2019-06-07T09:21:34.699Z,21.60
2019-06-07T09:24:08.386Z,21.60
2019-06-07T09:26:30.106Z,20.80
2019-06-07T09:28:58.531Z,20.40
2019-06-07T09:31:33.319Z,20.60
2019-06-07T09:33:54.304Z,20.70
2019-06-07T09:36:21.270Z,21.80
2019-06-07T09:38:49.031Z,21.70
2019-06-07T09:41:15.979Z,21.50
2019-06-07T09:46:15.371Z,21.30
2019-06-07T09:51:19.484Z,20.70
2019-06-07T09:53:38.227Z,20.50
2019-06-07T09:56:08.737Z,20.20
2019-06-07T09:58:52.716Z,20.30
2019-06-07T10:01:06.858Z,20.30
2019-06-07T10:03:31.747Z,19.90
2019-06-07T10:06:00.335Z,19.70
2019-06-07T10:09:42.504Z,19.80
2019-06-07T10:10:56.095Z,19.70
2019-06-07T10:13:22.830Z,19.60
2019-06-07T10:15:49.925Z,20.00
2019-06-07T10:18:17.064Z,20.10
2019-06-07T10:20:43.874Z,20.30
2019-06-07T10:23:10.712Z,20.60
2019-06-07T10:25:38.098Z,20.50
2019-06-07T10:28:06.055Z,20.30
2019-06-07T10:30:33.367Z,19.80
2019-06-07T10:33:00.523Z,20.00
2019-06-07T10:35:27.833Z,19.70
2019-06-07T10:37:54.643Z,20.10
2019-06-07T10:40:21.624Z,20.30
2019-06-07T10:42:48.324Z,20.50
2019-06-07T10:45:15.616Z,20.30
2019-06-07T10:47:42.783Z,20.40
2019-06-07T10:50:10.545Z,20.30
2019-06-07T10:52:37.356Z,20.00
2019-06-07T10:55:04.624Z,19.90
2019-06-07T10:57:31.414Z,20.20
2019-06-07T10:59:58.460Z,20.30
2019-06-07T11:02:25.149Z,20.40
2019-06-07T11:04:52.106Z,20.50
2019-06-07T11:07:19.052Z,20.70
2019-06-07T11:09:45.760Z,20.80
2019-06-07T11:12:12.619Z,20.70
2019-06-07T11:14:39.296Z,20.70
2019-06-07T11:17:07.351Z,20.70
2019-06-07T11:19:34.505Z,20.80
2019-06-07T11:22:01.652Z,20.60
2019-06-07T11:24:28.612Z,20.70
2019-06-07T11:26:55.292Z,20.90
2019-06-07T11:29:22.395Z,20.90
2019-06-07T11:31:49.100Z,21.00
2019-06-07T11:34:15.895Z,21.20
2019-06-07T11:36:42.948Z,21.30
2019-06-07T11:39:11.081Z,21.30
2019-06-07T11:41:37.990Z,21.10
2019-06-07T11:44:06.594Z,21.30
2019-06-07T11:46:33.472Z,21.40
2019-06-07T11:49:00.155Z,21.60
2019-06-07T11:51:26.861Z,21.40
2019-06-07T11:53:53.875Z,21.20
2019-06-07T11:56:20.635Z,21.40
2019-06-07T11:58:47.679Z,21.50
2019-06-07T12:01:16.597Z,21.50
2019-06-07T12:03:43.567Z,21.40
2019-06-07T12:06:10.616Z,21.60
2019-06-07T12:08:38.742Z,21.80
2019-06-07T12:11:05.547Z,22.00
2019-06-07T12:13:32.262Z,22.40
2019-06-07T12:15:58.978Z,23.00
2019-06-07T12:18:25.692Z,23.00
2019-06-07T12:20:52.492Z,22.70
2019-06-07T12:23:20.140Z,22.80
2019-06-07T12:25:47.387Z,22.70
2019-06-07T12:28:14.652Z,22.60
2019-06-07T12:30:41.583Z,22.60
2019-06-07T12:33:08.295Z,22.60
2019-06-07T12:35:35.232Z,22.60
2019-06-07T12:38:01.952Z,22.50
2019-06-07T12:40:32.248Z,22.50
2019-06-07T12:42:57.246Z,22.60
2019-06-07T12:45:44.023Z,22.70
2019-06-07T12:47:52.578Z,22.80
2019-06-07T12:50:19.778Z,22.80
2019-06-07T12:52:46.512Z,22.90
2019-06-07T12:55:15.992Z,22.80
2019-06-07T12:57:43.515Z,22.70
2019-06-07T13:00:11.341Z,22.80
2019-06-07T13:02:38.412Z,22.90
2019-06-07T13:05:06.594Z,22.90
2019-06-07T13:07:33.344Z,22.90
2019-06-07T13:10:00.036Z,23.00
2019-06-07T13:12:28.248Z,23.10
2019-06-07T13:14:55.201Z,23.10
2019-06-07T13:17:22.317Z,23.10
2019-06-07T13:19:49.099Z,23.10
2019-06-07T13:22:16.197Z,23.20
2019-06-07T13:24:43.396Z,23.20
2019-06-07T13:27:10.074Z,23.10
2019-06-07T13:29:37.274Z,23.20
2019-06-07T13:32:03.964Z,23.30
2019-06-07T13:34:30.686Z,23.40
2019-06-07T13:36:57.524Z,23.40
2019-06-07T13:39:27.560Z,23.30
2019-06-07T13:41:53.261Z,23.50
2019-06-07T13:44:20.939Z,23.60
2019-06-07T13:46:47.742Z,23.50
2019-06-07T13:49:14.474Z,23.60
2019-06-07T13:51:41.427Z,23.60
2019-06-07T13:54:08.465Z,23.60
2019-06-07T13:56:35.201Z,23.70
2019-06-07T13:59:01.902Z,23.70
2019-06-07T14:01:29.142Z,23.60
2019-06-07T14:03:56.079Z,23.60
2019-06-07T14:06:23.427Z,23.80
2019-06-07T14:08:50.526Z,23.90
2019-06-07T14:11:17.264Z,23.80
2019-06-07T14:13:44.167Z,24.00
2019-06-07T14:16:11.300Z,24.10
2019-06-07T14:18:38.209Z,24.20
2019-06-07T14:21:05.509Z,24.10
2019-06-07T14:23:45.701Z,24.00
2019-06-07T14:26:01.022Z,24.10
2019-06-07T14:28:31.834Z,24.10
2019-06-07T14:30:57.301Z,24.10
2019-06-07T14:33:27.500Z,24.20
2019-06-07T14:35:54.048Z,24.30
2019-06-07T14:38:21.097Z,24.20
2019-06-07T14:40:47.875Z,24.10
2019-06-07T14:43:14.592Z,24.00
2019-06-07T14:45:41.275Z,24.00
2019-06-07T14:48:08.040Z,24.10
2019-06-07T14:50:35.324Z,24.10
2019-06-07T14:53:02.031Z,24.30
2019-06-07T14:55:29.015Z,24.40
2019-06-07T14:57:55.839Z,24.50
2019-06-07T15:00:36.205Z,24.30
2019-06-07T15:03:03.196Z,24.60
2019-06-07T15:05:31.205Z,24.70
2019-06-07T15:07:58.756Z,24.80
2019-06-07T15:10:26.609Z,24.80
2019-06-07T15:12:53.792Z,24.80
2019-06-07T15:15:20.505Z,24.80
2019-06-07T15:17:47.217Z,24.70
2019-06-07T15:20:14.324Z,24.60
2019-06-07T15:22:41.311Z,24.60
2019-06-07T15:25:08.571Z,24.60
2019-06-07T15:27:35.675Z,24.60
2019-06-07T15:30:10.069Z,24.70
2019-06-07T15:32:32.815Z,24.80
2019-06-07T15:35:00.384Z,24.70
2019-06-07T15:37:28.308Z,24.60
2019-06-07T15:39:55.234Z,24.50
2019-06-07T15:42:21.942Z,24.30
2019-06-07T15:44:48.652Z,24.30
2019-06-07T15:47:15.980Z,24.10
2019-06-07T15:49:42.691Z,24.10
2019-06-07T15:52:09.428Z,24.10
2019-06-07T15:54:36.441Z,24.10
2019-06-07T15:57:03.525Z,24.10
2019-06-07T15:59:31.013Z,24.20
2019-06-07T16:01:58.273Z,24.30
2019-06-07T16:04:25.216Z,24.40
2019-06-07T16:06:51.960Z,24.20
2019-06-07T16:09:18.685Z,24.20
2019-06-07T16:11:45.492Z,24.10
2019-06-07T16:14:12.466Z,24.10
2019-06-07T16:16:39.430Z,24.20
2019-06-07T16:19:06.294Z,24.30
2019-06-07T16:21:33.310Z,24.50
2019-06-07T16:24:00.080Z,24.60
2019-06-07T16:26:27.445Z,24.50
2019-06-07T16:28:57.206Z,24.60
2019-06-07T16:31:23.047Z,24.70
2019-06-07T16:33:49.892Z,24.60
2019-06-07T16:36:16.588Z,24.60
2019-06-07T16:38:44.397Z,24.60
2019-06-07T16:41:11.472Z,24.70
2019-06-07T16:43:38.552Z,24.50
2019-06-07T16:46:05.820Z,24.40
2019-06-07T16:48:32.695Z,24.30
2019-06-07T16:51:01.606Z,24.10
2019-06-07T16:53:28.610Z,23.90
2019-06-07T16:55:55.301Z,23.80
2019-06-07T16:58:22.186Z,23.60
2019-06-07T17:00:49.165Z,23.50
2019-06-07T17:03:16.209Z,23.60
2019-06-07T17:05:46.721Z,23.60
2019-06-07T17:08:12.494Z,23.40
2019-06-07T17:10:40.129Z,23.10
2019-06-07T17:13:07.258Z,22.60
2019-06-07T17:15:34.212Z,21.90
2019-06-07T17:18:00.934Z,21.50
2019-06-07T17:20:27.664Z,21.10
2019-06-07T17:22:54.464Z,20.80
2019-06-07T17:25:21.487Z,20.60
2019-06-07T17:27:49.976Z,20.30
2019-06-07T17:30:18.398Z,20.20
2019-06-07T17:32:53.894Z,20.00
2019-06-07T17:35:14.504Z,19.80
2019-06-07T17:37:43.194Z,19.50
2019-06-07T17:40:10.948Z,19.30
2019-06-07T17:42:37.980Z,19.10
2019-06-07T17:45:05.527Z,18.90
2019-06-07T17:47:32.511Z,18.80
2019-06-07T17:49:59.516Z,18.50
2019-06-07T17:52:26.201Z,18.30
2019-06-07T17:54:52.944Z,18.20
2019-06-07T17:57:19.639Z,18.00
2019-06-07T17:59:46.645Z,17.80
2019-06-07T18:02:15.459Z,17.70
2019-06-07T18:04:43.129Z,17.70
2019-06-07T18:07:10.413Z,17.80
2019-06-07T18:09:38.219Z,17.90
2019-06-07T18:12:05.144Z,18.10
2019-06-07T18:14:32.494Z,18.00
2019-06-07T18:16:59.239Z,18.00
2019-06-07T18:19:26.044Z,17.80
2019-06-07T18:21:58.595Z,17.80
2019-06-07T18:24:22.164Z,17.80
2019-06-07T18:26:50.443Z,18.00
2019-06-07T18:29:17.563Z,18.00
2019-06-07T18:31:44.477Z,18.10
2019-06-07T18:34:11.412Z,18.10
2019-06-07T18:36:38.132Z,18.00
2019-06-07T18:39:06.210Z,18.00
2019-06-07T18:41:32.900Z,18.00
2019-06-07T18:43:59.602Z,17.90
2019-06-07T18:46:26.664Z,17.90
2019-06-07T18:48:54.653Z,17.80
2019-06-07T18:51:21.587Z,17.70
2019-06-07T18:53:49.723Z,17.60
2019-06-07T18:56:16.917Z,17.40
2019-06-07T18:58:43.880Z,17.40
2019-06-07T19:01:10.814Z,17.10
2019-06-07T19:03:37.532Z,17.10
2019-06-07T19:06:04.426Z,17.10
2019-06-07T19:08:31.164Z,17.20
2019-06-07T19:10:58.987Z,17.10
2019-06-07T19:13:25.868Z,16.50
2019-06-07T19:15:53.358Z,16.50
2019-06-07T19:18:20.223Z,16.60
2019-06-07T19:20:47.267Z,16.60
2019-06-07T19:23:14.300Z,16.60
2019-06-07T19:25:41.196Z,16.60
2019-06-07T19:28:07.990Z,16.50
2019-06-07T19:30:34.723Z,16.30
2019-06-07T19:33:01.805Z,16.40
2019-06-07T19:35:28.686Z,16.40
2019-06-07T19:37:55.959Z,16.40
2019-06-07T19:40:23.016Z,16.40
2019-06-07T19:42:49.808Z,16.50
2019-06-07T19:45:29.659Z,16.40
2019-06-07T19:47:45.533Z,16.40
2019-06-07T19:50:13.128Z,16.10
2019-06-07T19:52:39.840Z,16.10
2019-06-07T19:55:09.819Z,15.90
2019-06-07T19:57:35.528Z,15.80
2019-06-07T20:00:13.208Z,15.70
2019-06-07T20:02:32.251Z,15.70
2019-06-07T20:05:02.980Z,15.70
2019-06-07T20:07:27.855Z,15.60
2019-06-07T20:09:54.608Z,15.50
2019-06-07T20:12:21.629Z,15.40
2019-06-07T20:14:48.665Z,14.90
2019-06-07T20:17:15.348Z,14.00
2019-06-07T20:19:42.522Z,13.80
2019-06-07T20:22:09.551Z,14.00
2019-06-07T20:24:38.145Z,13.80
2019-06-07T20:27:05.031Z,13.90
2019-06-07T20:29:31.714Z,14.20
2019-06-07T20:31:58.467Z,14.20
2019-06-07T20:34:25.445Z,13.70
2019-06-07T20:36:53.212Z,13.60
2019-06-07T20:39:20.044Z,13.60
2019-06-07T20:41:46.746Z,13.80
2019-06-07T20:44:13.714Z,13.80
2019-06-07T20:46:40.405Z,13.90
2019-06-07T20:49:08.312Z,14.10
2019-06-07T20:51:35.236Z,14.10
2019-06-07T20:54:02.573Z,14.40
2019-06-07T20:56:29.663Z,14.60
2019-06-07T20:58:56.606Z,14.70
2019-06-07T21:01:23.552Z,14.60
2019-06-07T21:03:50.284Z,14.70
2019-06-07T21:06:17.249Z,14.90
2019-06-07T21:08:44.282Z,15.00
2019-06-07T21:11:10.988Z,15.10
2019-06-07T21:13:37.682Z,15.20
2019-06-07T21:16:04.497Z,15.30
2019-06-07T21:18:31.199Z,15.40
2019-06-07T21:20:57.927Z,15.40
2019-06-07T21:23:24.615Z,15.30
2019-06-07T21:25:51.304Z,15.30
2019-06-07T21:28:18.288Z,15.40
2019-06-07T21:30:44.971Z,15.40
2019-06-07T21:33:12.064Z,15.30
2019-06-07T21:35:39.064Z,15.30
2019-06-07T21:38:06.088Z,15.20
2019-06-07T21:40:32.979Z,15.30
2019-06-07T21:42:59.674Z,15.40
2019-06-07T21:45:26.692Z,15.30
2019-06-07T21:47:53.408Z,14.90
2019-06-07T21:50:20.147Z,14.80
2019-06-07T21:52:47.320Z,15.00
2019-06-07T21:55:14.980Z,14.80
2019-06-07T21:57:41.671Z,14.60
2019-06-07T22:00:14.499Z,14.30
2019-06-07T22:02:41.471Z,14.40
2019-06-07T22:05:09.662Z,14.00
2019-06-07T22:07:36.536Z,14.10
2019-06-07T22:10:03.724Z,14.10
2019-06-07T22:12:30.617Z,14.30
2019-06-07T22:14:57.392Z,14.40
2019-06-07T22:17:24.114Z,14.30
2019-06-07T22:19:50.838Z,14.30
2019-06-07T22:22:17.616Z,14.10
2019-06-07T22:24:44.578Z,14.00
2019-06-07T22:27:11.434Z,13.70
2019-06-07T22:29:38.249Z,13.60
2019-06-07T22:32:04.950Z,13.50
2019-06-07T22:34:31.916Z,13.20
2019-06-07T22:36:58.898Z,13.00
2019-06-07T22:39:25.608Z,13.00
2019-06-07T22:41:52.300Z,13.00
2019-06-07T22:44:19.407Z,13.10
2019-06-07T22:46:46.436Z,13.10
2019-06-07T22:49:13.381Z,13.00
2019-06-07T22:51:40.459Z,12.90
2019-06-07T22:54:07.555Z,13.00
2019-06-07T22:56:43.031Z,13.00
2019-06-07T22:59:13.701Z,13.10
2019-06-07T23:01:38.568Z,13.00
2019-06-07T23:04:05.841Z,13.00
2019-06-07T23:06:32.891Z,13.10
2019-06-07T23:08:59.707Z,13.00
2019-06-07T23:11:26.389Z,13.00
2019-06-07T23:13:53.385Z,13.20
2019-06-07T23:16:20.074Z,13.40
2019-06-07T23:18:47.091Z,13.50
2019-06-07T23:21:13.867Z,13.60
2019-06-07T23:23:40.558Z,13.80
2019-06-07T23:26:07.646Z,14.00
2019-06-07T23:28:34.703Z,14.00
2019-06-07T23:31:01.835Z,14.00
2019-06-07T23:33:29.082Z,14.10
2019-06-07T23:35:56.011Z,14.10
2019-06-07T23:38:23.287Z,14.20
2019-06-07T23:40:50.029Z,14.40
2019-06-07T23:43:17.551Z,14.40
2019-06-07T23:45:44.631Z,14.40
2019-06-07T23:48:11.358Z,14.40
2019-06-07T23:50:38.424Z,14.40
2019-06-07T23:53:05.379Z,14.40
2019-06-07T23:55:32.483Z,14.40
2019-06-07T23:57:59.182Z,14.30
